sensor_id;sensor_type;location;lat;lon;timestamp;temperature;humidity
49224;DHT22;35050;51.316;5.994;2022-10-23T00:00:17;13.60;99.90
49224;DHT22;35050;51.316;5.994;2022-10-23T00:02:43;13.60;99.90
49224;DHT22;35050;51.316;5.994;2022-10-23T00:05:08;13.60;99.90
49224;DHT22;35050;51.316;5.994;2022-10-23T00:07:34;13.50;99.90
49224;DHT22;35050;51.316;5.994;2022-10-23T00:09:59;13.50;99.90
49224;DHT22;35050;51.316;5.994;2022-10-23T00:12:25;13.50;99.90
49224;DHT22;35050;51.316;5.994;2022-10-23T00:14:52;13.50;99.90
49224;DHT22;35050;51.316;5.994;2022-10-23T00:17:17;13.50;99.90
49224;DHT22;35050;51.316;5.994;2022-10-23T00:19:43;13.50;99.90
49224;DHT22;35050;51.316;5.994;2022-10-23T00:22:08;13.50;99.90
49224;DHT22;35050;51.316;5.994;2022-10-23T00:24:35;13.60;99.90
49224;DHT22;35050;51.316;5.994;2022-10-23T00:27:01;13.50;99.90
49224;DHT22;35050;51.316;5.994;2022-10-23T00:29:26;13.50;99.90
49224;DHT22;35050;51.316;5.994;2022-10-23T00:31:52;13.50;99.90
49224;DHT22;35050;51.316;5.994;2022-10-23T00:34:18;13.50;99.90
49224;DHT22;35050;51.316;5.994;2022-10-23T00:36:44;13.40;99.90
49224;DHT22;35050;51.316;5.994;2022-10-23T00:39:09;13.40;99.90
49224;DHT22;35050;51.316;5.994;2022-10-23T00:41:35;13.40;99.90
49224;DHT22;35050;51.316;5.994;2022-10-23T00:46:28;13.30;99.90
49224;DHT22;35050;51.316;5.994;2022-10-23T00:48:54;13.30;99.90
49224;DHT22;35050;51.316;5.994;2022-10-23T00:51:20;13.30;99.90
49224;DHT22;35050;51.316;5.994;2022-10-23T00:53:46;13.30;99.90
49224;DHT22;35050;51.316;5.994;2022-10-23T00:56:13;13.30;99.90
49224;DHT22;35050;51.316;5.994;2022-10-23T00:58:39;13.30;99.90
49224;DHT22;35050;51.316;5.994;2022-10-23T01:01:15;13.30;99.90
49224;DHT22;35050;51.316;5.994;2022-10-23T01:03:41;13.20;99.90
49224;DHT22;35050;51.316;5.994;2022-10-23T01:08:51;13.20;99.90
49224;DHT22;35050;51.316;5.994;2022-10-23T01:14:09;13.20;99.90
49224;DHT22;35050;51.316;5.994;2022-10-23T01:24:14;13.30;99.90
49224;DHT22;35050;51.316;5.994;2022-10-23T01:31:41;13.20;99.90
49224;DHT22;35050;51.316;5.994;2022-10-23T01:34:11;13.30;99.90
49224;DHT22;35050;51.316;5.994;2022-10-23T01:36:38;13.30;99.90
49224;DHT22;35050;51.316;5.994;2022-10-23T01:39:06;13.20;99.90
49224;DHT22;35050;51.316;5.994;2022-10-23T01:44:12;13.20;99.90
49224;DHT22;35050;51.316;5.994;2022-10-23T01:46:39;13.30;99.90
49224;DHT22;35050;51.316;5.994;2022-10-23T01:49:05;13.20;99.90
49224;DHT22;35050;51.316;5.994;2022-10-23T01:51:32;13.20;99.90
49224;DHT22;35050;51.316;5.994;2022-10-23T01:53:59;13.30;99.90
49224;DHT22;35050;51.316;5.994;2022-10-23T01:56:27;13.20;99.90
49224;DHT22;35050;51.316;5.994;2022-10-23T01:58:53;13.20;99.90
49224;DHT22;35050;51.316;5.994;2022-10-23T02:01:21;13.30;99.90
49224;DHT22;35050;51.316;5.994;2022-10-23T02:03:48;13.20;99.90
49224;DHT22;35050;51.316;5.994;2022-10-23T02:06:14;13.20;99.90
49224;DHT22;35050;51.316;5.994;2022-10-23T02:08:39;13.20;99.90
49224;DHT22;35050;51.316;5.994;2022-10-23T02:11:06;13.20;99.90
49224;DHT22;35050;51.316;5.994;2022-10-23T02:13:33;13.20;99.90
49224;DHT22;35050;51.316;5.994;2022-10-23T02:16:05;13.30;99.90
49224;DHT22;35050;51.316;5.994;2022-10-23T02:21:08;13.30;99.90
49224;DHT22;35050;51.316;5.994;2022-10-23T02:23:46;13.30;99.90
49224;DHT22;35050;51.316;5.994;2022-10-23T02:26:16;13.20;99.90
49224;DHT22;35050;51.316;5.994;2022-10-23T02:29:06;13.30;99.90
49224;DHT22;35050;51.316;5.994;2022-10-23T02:31:29;13.30;99.90
49224;DHT22;35050;51.316;5.994;2022-10-23T02:33:55;13.30;99.90
49224;DHT22;35050;51.316;5.994;2022-10-23T02:36:21;13.30;99.90
49224;DHT22;35050;51.316;5.994;2022-10-23T02:38:46;13.20;99.90
49224;DHT22;35050;51.316;5.994;2022-10-23T02:43:52;13.30;99.90
49224;DHT22;35050;51.316;5.994;2022-10-23T02:46:40;13.20;99.90
49224;DHT22;35050;51.316;5.994;2022-10-23T02:54:17;13.30;99.90
49224;DHT22;35050;51.316;5.994;2022-10-23T02:56:49;13.20;99.90
49224;DHT22;35050;51.316;5.994;2022-10-23T03:01:54;13.30;99.90
49224;DHT22;35050;51.316;5.994;2022-10-23T03:04:20;13.30;99.90
49224;DHT22;35050;51.316;5.994;2022-10-23T03:06:48;13.30;99.90
49224;DHT22;35050;51.316;5.994;2022-10-23T03:09:14;13.30;99.90
49224;DHT22;35050;51.316;5.994;2022-10-23T03:11:39;13.30;99.90
49224;DHT22;35050;51.316;5.994;2022-10-23T03:14:05;13.40;99.90
49224;DHT22;35050;51.316;5.994;2022-10-23T03:16:30;13.30;99.90
49224;DHT22;35050;51.316;5.994;2022-10-23T03:18:56;13.30;99.90
49224;DHT22;35050;51.316;5.994;2022-10-23T03:21:21;13.30;99.90
49224;DHT22;35050;51.316;5.994;2022-10-23T03:23:47;13.40;99.90
49224;DHT22;35050;51.316;5.994;2022-10-23T03:26:12;13.40;99.90
49224;DHT22;35050;51.316;5.994;2022-10-23T03:28:38;13.40;99.90
49224;DHT22;35050;51.316;5.994;2022-10-23T03:31:03;13.40;99.90
49224;DHT22;35050;51.316;5.994;2022-10-23T03:33:29;13.40;99.90
49224;DHT22;35050;51.316;5.994;2022-10-23T03:35:55;13.40;99.90
49224;DHT22;35050;51.316;5.994;2022-10-23T03:38:20;13.40;99.90
49224;DHT22;35050;51.316;5.994;2022-10-23T03:40:46;13.40;99.90
49224;DHT22;35050;51.316;5.994;2022-10-23T03:43:11;13.50;99.90
49224;DHT22;35050;51.316;5.994;2022-10-23T03:45:37;13.50;99.90
49224;DHT22;35050;51.316;5.994;2022-10-23T03:48:03;13.50;99.90
49224;DHT22;35050;51.316;5.994;2022-10-23T03:50:28;13.50;99.90
49224;DHT22;35050;51.316;5.994;2022-10-23T03:52:54;13.50;99.90
49224;DHT22;35050;51.316;5.994;2022-10-23T03:55:19;13.50;99.90
49224;DHT22;35050;51.316;5.994;2022-10-23T03:57:45;13.50;99.90
49224;DHT22;35050;51.316;5.994;2022-10-23T04:00:11;13.50;99.90
49224;DHT22;35050;51.316;5.994;2022-10-23T04:02:36;13.50;99.90
49224;DHT22;35050;51.316;5.994;2022-10-23T04:05:02;13.50;99.90
49224;DHT22;35050;51.316;5.994;2022-10-23T04:07:27;13.50;99.90
49224;DHT22;35050;51.316;5.994;2022-10-23T04:09:53;13.50;99.90
49224;DHT22;35050;51.316;5.994;2022-10-23T04:12:18;13.50;99.90
49224;DHT22;35050;51.316;5.994;2022-10-23T04:14:44;13.50;99.90
49224;DHT22;35050;51.316;5.994;2022-10-23T04:17:09;13.40;99.90
49224;DHT22;35050;51.316;5.994;2022-10-23T04:19:35;13.40;99.90
49224;DHT22;35050;51.316;5.994;2022-10-23T04:22:00;13.40;99.90
49224;DHT22;35050;51.316;5.994;2022-10-23T04:24:26;13.40;99.90
49224;DHT22;35050;51.316;5.994;2022-10-23T04:26:52;13.40;99.90
49224;DHT22;35050;51.316;5.994;2022-10-23T04:29:17;13.50;99.90
49224;DHT22;35050;51.316;5.994;2022-10-23T04:31:43;13.40;99.90
49224;DHT22;35050;51.316;5.994;2022-10-23T04:34:08;13.40;99.90
49224;DHT22;35050;51.316;5.994;2022-10-23T04:36:34;13.50;99.90
49224;DHT22;35050;51.316;5.994;2022-10-23T04:38:59;13.50;99.90
49224;DHT22;35050;51.316;5.994;2022-10-23T04:41:25;13.50;99.90
49224;DHT22;35050;51.316;5.994;2022-10-23T04:43:50;13.50;99.90
49224;DHT22;35050;51.316;5.994;2022-10-23T04:46:16;13.50;99.90
49224;DHT22;35050;51.316;5.994;2022-10-23T04:48:42;13.50;99.90
49224;DHT22;35050;51.316;5.994;2022-10-23T04:51:08;13.50;99.90
49224;DHT22;35050;51.316;5.994;2022-10-23T04:53:34;13.60;99.90
49224;DHT22;35050;51.316;5.994;2022-10-23T04:55:59;13.50;99.90
49224;DHT22;35050;51.316;5.994;2022-10-23T04:58:26;13.60;99.90
49224;DHT22;35050;51.316;5.994;2022-10-23T05:00:52;13.60;99.90
49224;DHT22;35050;51.316;5.994;2022-10-23T05:03:18;13.60;99.90
49224;DHT22;35050;51.316;5.994;2022-10-23T05:05:44;13.70;99.90
49224;DHT22;35050;51.316;5.994;2022-10-23T05:08:10;13.60;99.90
49224;DHT22;35050;51.316;5.994;2022-10-23T05:10:36;13.70;99.90
49224;DHT22;35050;51.316;5.994;2022-10-23T05:13:02;13.60;99.90
49224;DHT22;35050;51.316;5.994;2022-10-23T05:15:27;13.70;99.90
49224;DHT22;35050;51.316;5.994;2022-10-23T05:17:54;13.70;99.90
49224;DHT22;35050;51.316;5.994;2022-10-23T05:20:22;13.60;99.90
49224;DHT22;35050;51.316;5.994;2022-10-23T05:22:48;13.70;99.90
49224;DHT22;35050;51.316;5.994;2022-10-23T05:25:15;13.70;99.90
49224;DHT22;35050;51.316;5.994;2022-10-23T05:27:41;13.70;99.90
49224;DHT22;35050;51.316;5.994;2022-10-23T05:30:06;13.70;99.90
49224;DHT22;35050;51.316;5.994;2022-10-23T05:32:32;13.60;99.90
49224;DHT22;35050;51.316;5.994;2022-10-23T05:34:58;13.70;99.90
49224;DHT22;35050;51.316;5.994;2022-10-23T05:37:24;13.70;99.90
49224;DHT22;35050;51.316;5.994;2022-10-23T05:39:50;13.80;99.90
49224;DHT22;35050;51.316;5.994;2022-10-23T05:42:16;13.70;99.90
49224;DHT22;35050;51.316;5.994;2022-10-23T05:44:41;13.70;99.90
49224;DHT22;35050;51.316;5.994;2022-10-23T05:47:07;13.70;99.90
49224;DHT22;35050;51.316;5.994;2022-10-23T05:49:33;13.70;99.90
49224;DHT22;35050;51.316;5.994;2022-10-23T05:51:58;13.70;99.90
49224;DHT22;35050;51.316;5.994;2022-10-23T05:54:24;13.80;99.90
49224;DHT22;35050;51.316;5.994;2022-10-23T05:56:50;13.80;99.90
49224;DHT22;35050;51.316;5.994;2022-10-23T05:59:16;13.80;99.90
49224;DHT22;35050;51.316;5.994;2022-10-23T06:01:41;13.80;99.90
49224;DHT22;35050;51.316;5.994;2022-10-23T06:04:07;13.80;99.90
49224;DHT22;35050;51.316;5.994;2022-10-23T06:06:33;13.70;99.90
49224;DHT22;35050;51.316;5.994;2022-10-23T06:08:58;13.70;99.90
49224;DHT22;35050;51.316;5.994;2022-10-23T06:11:24;13.70;99.90
49224;DHT22;35050;51.316;5.994;2022-10-23T06:13:49;13.70;99.90
49224;DHT22;35050;51.316;5.994;2022-10-23T06:16:18;13.70;99.90
49224;DHT22;35050;51.316;5.994;2022-10-23T06:18:44;13.80;99.90
49224;DHT22;35050;51.316;5.994;2022-10-23T06:21:10;13.80;99.90
49224;DHT22;35050;51.316;5.994;2022-10-23T06:23:36;13.80;99.90
49224;DHT22;35050;51.316;5.994;2022-10-23T06:26:03;13.80;99.90
49224;DHT22;35050;51.316;5.994;2022-10-23T06:28:28;13.80;99.90
49224;DHT22;35050;51.316;5.994;2022-10-23T06:30:54;13.80;99.90
49224;DHT22;35050;51.316;5.994;2022-10-23T06:33:19;13.80;99.90
49224;DHT22;35050;51.316;5.994;2022-10-23T06:35:45;13.80;99.90
49224;DHT22;35050;51.316;5.994;2022-10-23T06:38:10;13.80;99.90
49224;DHT22;35050;51.316;5.994;2022-10-23T06:40:36;13.90;99.90
49224;DHT22;35050;51.316;5.994;2022-10-23T06:43:02;13.90;99.90
49224;DHT22;35050;51.316;5.994;2022-10-23T06:45:28;13.90;99.90
49224;DHT22;35050;51.316;5.994;2022-10-23T06:47:54;13.90;99.90
49224;DHT22;35050;51.316;5.994;2022-10-23T06:50:20;13.90;99.90
49224;DHT22;35050;51.316;5.994;2022-10-23T06:52:45;13.90;99.90
49224;DHT22;35050;51.316;5.994;2022-10-23T06:55:11;13.90;99.90
49224;DHT22;35050;51.316;5.994;2022-10-23T06:57:36;13.90;99.90
49224;DHT22;35050;51.316;5.994;2022-10-23T07:00:02;13.90;99.90
49224;DHT22;35050;51.316;5.994;2022-10-23T07:02:28;14.00;99.90
49224;DHT22;35050;51.316;5.994;2022-10-23T07:04:53;14.00;99.90
49224;DHT22;35050;51.316;5.994;2022-10-23T07:07:19;14.00;99.90
49224;DHT22;35050;51.316;5.994;2022-10-23T07:09:44;14.00;99.90
49224;DHT22;35050;51.316;5.994;2022-10-23T07:12:10;14.00;99.90
49224;DHT22;35050;51.316;5.994;2022-10-23T07:14:35;14.10;99.90
49224;DHT22;35050;51.316;5.994;2022-10-23T07:17:01;14.10;99.90
49224;DHT22;35050;51.316;5.994;2022-10-23T07:19:26;14.10;99.90
49224;DHT22;35050;51.316;5.994;2022-10-23T07:21:52;14.10;99.90
49224;DHT22;35050;51.316;5.994;2022-10-23T07:24:17;14.10;99.90
49224;DHT22;35050;51.316;5.994;2022-10-23T07:26:43;14.20;99.90
49224;DHT22;35050;51.316;5.994;2022-10-23T07:29:09;14.10;99.90
49224;DHT22;35050;51.316;5.994;2022-10-23T07:31:35;14.10;99.90
49224;DHT22;35050;51.316;5.994;2022-10-23T07:34:00;14.20;99.90
49224;DHT22;35050;51.316;5.994;2022-10-23T07:36:26;14.20;99.90
49224;DHT22;35050;51.316;5.994;2022-10-23T07:38:51;14.20;99.90
49224;DHT22;35050;51.316;5.994;2022-10-23T07:41:17;14.30;99.90
49224;DHT22;35050;51.316;5.994;2022-10-23T07:43:42;14.30;99.90
49224;DHT22;35050;51.316;5.994;2022-10-23T07:46:08;14.30;99.90
49224;DHT22;35050;51.316;5.994;2022-10-23T07:48:34;14.40;99.90
49224;DHT22;35050;51.316;5.994;2022-10-23T07:51:01;14.40;99.90
49224;DHT22;35050;51.316;5.994;2022-10-23T07:53:27;14.50;99.90
49224;DHT22;35050;51.316;5.994;2022-10-23T07:55:54;14.50;99.90
49224;DHT22;35050;51.316;5.994;2022-10-23T07:58:19;14.60;99.90
49224;DHT22;35050;51.316;5.994;2022-10-23T08:00:45;14.60;99.90
49224;DHT22;35050;51.316;5.994;2022-10-23T08:03:17;14.70;99.90
49224;DHT22;35050;51.316;5.994;2022-10-23T08:05:42;14.70;99.90
49224;DHT22;35050;51.316;5.994;2022-10-23T08:08:08;14.80;99.90
49224;DHT22;35050;51.316;5.994;2022-10-23T08:10:33;14.80;99.90
49224;DHT22;35050;51.316;5.994;2022-10-23T08:12:59;14.80;99.90
49224;DHT22;35050;51.316;5.994;2022-10-23T08:15:24;14.90;99.90
49224;DHT22;35050;51.316;5.994;2022-10-23T08:17:50;14.90;99.90
49224;DHT22;35050;51.316;5.994;2022-10-23T08:20:16;14.90;99.90
49224;DHT22;35050;51.316;5.994;2022-10-23T08:22:42;14.90;99.90
49224;DHT22;35050;51.316;5.994;2022-10-23T08:25:07;15.00;99.90
49224;DHT22;35050;51.316;5.994;2022-10-23T08:27:33;15.00;99.90
49224;DHT22;35050;51.316;5.994;2022-10-23T08:29:59;15.00;99.90
49224;DHT22;35050;51.316;5.994;2022-10-23T08:32:27;15.10;99.90
49224;DHT22;35050;51.316;5.994;2022-10-23T08:34:52;15.10;99.90
49224;DHT22;35050;51.316;5.994;2022-10-23T08:37:18;15.10;99.90
49224;DHT22;35050;51.316;5.994;2022-10-23T08:39:43;15.20;99.90
49224;DHT22;35050;51.316;5.994;2022-10-23T08:42:16;15.20;99.90
49224;DHT22;35050;51.316;5.994;2022-10-23T08:44:45;15.20;99.90
49224;DHT22;35050;51.316;5.994;2022-10-23T08:47:16;15.30;99.90
49224;DHT22;35050;51.316;5.994;2022-10-23T08:57:32;15.40;99.90
49224;DHT22;35050;51.316;5.994;2022-10-23T09:00:05;15.50;99.90
49224;DHT22;35050;51.316;5.994;2022-10-23T09:02:34;15.50;99.90
49224;DHT22;35050;51.316;5.994;2022-10-23T09:05:00;15.50;99.90
49224;DHT22;35050;51.316;5.994;2022-10-23T09:12:42;15.70;99.90
49224;DHT22;35050;51.316;5.994;2022-10-23T09:17:37;15.70;99.90
49224;DHT22;35050;51.316;5.994;2022-10-23T09:22:29;15.80;99.90
49224;DHT22;35050;51.316;5.994;2022-10-23T09:24:54;15.90;99.90
49224;DHT22;35050;51.316;5.994;2022-10-23T09:27:20;16.00;99.90
49224;DHT22;35050;51.316;5.994;2022-10-23T09:29:49;15.90;99.90
49224;DHT22;35050;51.316;5.994;2022-10-23T09:32:16;16.00;99.90
49224;DHT22;35050;51.316;5.994;2022-10-23T09:34:51;16.00;99.90
49224;DHT22;35050;51.316;5.994;2022-10-23T09:39:46;16.10;99.90
49224;DHT22;35050;51.316;5.994;2022-10-23T09:42:29;16.00;99.90
49224;DHT22;35050;51.316;5.994;2022-10-23T09:44:55;16.10;99.90
49224;DHT22;35050;51.316;5.994;2022-10-23T09:47:22;16.00;99.90
49224;DHT22;35050;51.316;5.994;2022-10-23T09:49:49;16.10;99.90
49224;DHT22;35050;51.316;5.994;2022-10-23T09:57:39;16.20;99.90
49224;DHT22;35050;51.316;5.994;2022-10-23T10:02:41;16.30;99.90
49224;DHT22;35050;51.316;5.994;2022-10-23T10:05:18;16.40;99.90
49224;DHT22;35050;51.316;5.994;2022-10-23T10:07:52;16.40;99.90
49224;DHT22;35050;51.316;5.994;2022-10-23T10:10:18;16.50;99.90
49224;DHT22;35050;51.316;5.994;2022-10-23T10:12:50;16.50;99.90
49224;DHT22;35050;51.316;5.994;2022-10-23T10:15:21;16.60;99.90
49224;DHT22;35050;51.316;5.994;2022-10-23T10:18:05;16.70;99.90
49224;DHT22;35050;51.316;5.994;2022-10-23T10:20:37;16.60;99.90
49224;DHT22;35050;51.316;5.994;2022-10-23T10:25:51;16.60;99.90
49224;DHT22;35050;51.316;5.994;2022-10-23T10:31:17;16.60;99.90
49224;DHT22;35050;51.316;5.994;2022-10-23T10:39:15;16.60;99.90
49224;DHT22;35050;51.316;5.994;2022-10-23T10:49:38;16.80;99.90
49224;DHT22;35050;51.316;5.994;2022-10-23T10:52:07;16.80;99.90
49224;DHT22;35050;51.316;5.994;2022-10-23T10:54:49;17.00;99.90
49224;DHT22;35050;51.316;5.994;2022-10-23T10:57:30;17.10;99.90
49224;DHT22;35050;51.316;5.994;2022-10-23T10:59:56;17.60;99.90
49224;DHT22;35050;51.316;5.994;2022-10-23T11:04:59;17.30;99.90
49224;DHT22;35050;51.316;5.994;2022-10-23T11:07:29;17.30;99.90
49224;DHT22;35050;51.316;5.994;2022-10-23T11:09:57;17.20;99.90
49224;DHT22;35050;51.316;5.994;2022-10-23T11:12:25;17.20;99.90
49224;DHT22;35050;51.316;5.994;2022-10-23T11:14:51;17.10;99.90
49224;DHT22;35050;51.316;5.994;2022-10-23T11:17:22;17.10;99.90
49224;DHT22;35050;51.316;5.994;2022-10-23T11:19:56;17.20;99.90
49224;DHT22;35050;51.316;5.994;2022-10-23T11:22:27;17.20;99.90
49224;DHT22;35050;51.316;5.994;2022-10-23T11:40:53;18.10;99.90
49224;DHT22;35050;51.316;5.994;2022-10-23T11:45:51;18.30;99.90
49224;DHT22;35050;51.316;5.994;2022-10-23T11:53:22;18.70;99.90
49224;DHT22;35050;51.316;5.994;2022-10-23T11:58:24;18.70;99.90
49224;DHT22;35050;51.316;5.994;2022-10-23T12:01:00;18.80;99.90
49224;DHT22;35050;51.316;5.994;2022-10-23T12:03:31;18.90;99.90
49224;DHT22;35050;51.316;5.994;2022-10-23T12:06:02;19.00;99.90
49224;DHT22;35050;51.316;5.994;2022-10-23T12:08:29;19.00;99.90
49224;DHT22;35050;51.316;5.994;2022-10-23T12:10:56;18.90;99.90
49224;DHT22;35050;51.316;5.994;2022-10-23T12:15:53;18.90;99.90
49224;DHT22;35050;51.316;5.994;2022-10-23T12:18:19;18.90;99.90
49224;DHT22;35050;51.316;5.994;2022-10-23T12:38:55;19.20;99.90
49224;DHT22;35050;51.316;5.994;2022-10-23T12:41:29;19.20;99.90
49224;DHT22;35050;51.316;5.994;2022-10-23T12:43:56;19.10;99.90
49224;DHT22;35050;51.316;5.994;2022-10-23T12:48:52;19.20;99.90
49224;DHT22;35050;51.316;5.994;2022-10-23T12:51:28;19.10;99.90
49224;DHT22;35050;51.316;5.994;2022-10-23T12:53:54;19.30;99.90
49224;DHT22;35050;51.316;5.994;2022-10-23T12:56:19;19.30;99.90
49224;DHT22;35050;51.316;5.994;2022-10-23T12:59:03;19.20;99.90
49224;DHT22;35050;51.316;5.994;2022-10-23T13:01:30;19.30;99.90
49224;DHT22;35050;51.316;5.994;2022-10-23T13:06:40;19.30;99.90
49224;DHT22;35050;51.316;5.994;2022-10-23T13:09:09;19.30;99.90
49224;DHT22;35050;51.316;5.994;2022-10-23T13:11:39;19.30;99.90
49224;DHT22;35050;51.316;5.994;2022-10-23T13:14:11;19.30;99.90
49224;DHT22;35050;51.316;5.994;2022-10-23T13:16:37;19.30;99.90
49224;DHT22;35050;51.316;5.994;2022-10-23T13:19:02;19.30;99.90
49224;DHT22;35050;51.316;5.994;2022-10-23T13:21:28;19.30;99.90
49224;DHT22;35050;51.316;5.994;2022-10-23T13:23:54;19.30;99.90
49224;DHT22;35050;51.316;5.994;2022-10-23T13:28:55;19.40;99.90
49224;DHT22;35050;51.316;5.994;2022-10-23T13:31:39;19.40;99.90
49224;DHT22;35050;51.316;5.994;2022-10-23T13:34:06;19.40;99.90
49224;DHT22;35050;51.316;5.994;2022-10-23T13:36:47;19.40;99.90
49224;DHT22;35050;51.316;5.994;2022-10-23T13:39:14;19.30;99.90
49224;DHT22;35050;51.316;5.994;2022-10-23T13:41:41;19.30;99.90
49224;DHT22;35050;51.316;5.994;2022-10-23T13:44:08;19.30;99.90
49224;DHT22;35050;51.316;5.994;2022-10-23T13:46:34;19.30;99.90
49224;DHT22;35050;51.316;5.994;2022-10-23T13:49:00;19.30;99.90
49224;DHT22;35050;51.316;5.994;2022-10-23T13:51:26;19.30;99.90
49224;DHT22;35050;51.316;5.994;2022-10-23T13:53:52;19.20;99.90
49224;DHT22;35050;51.316;5.994;2022-10-23T13:56:19;19.20;99.90
49224;DHT22;35050;51.316;5.994;2022-10-23T13:58:44;19.20;99.90
49224;DHT22;35050;51.316;5.994;2022-10-23T14:01:20;19.10;99.90
49224;DHT22;35050;51.316;5.994;2022-10-23T14:03:46;19.10;99.90
49224;DHT22;35050;51.316;5.994;2022-10-23T14:06:12;19.20;99.90
49224;DHT22;35050;51.316;5.994;2022-10-23T14:08:37;19.20;99.90
49224;DHT22;35050;51.316;5.994;2022-10-23T14:11:03;19.20;99.90
49224;DHT22;35050;51.316;5.994;2022-10-23T14:13:28;19.20;99.90
49224;DHT22;35050;51.316;5.994;2022-10-23T14:15:54;19.20;99.90
49224;DHT22;35050;51.316;5.994;2022-10-23T14:18:20;19.20;99.90
49224;DHT22;35050;51.316;5.994;2022-10-23T14:20:46;19.20;99.90
49224;DHT22;35050;51.316;5.994;2022-10-23T14:23:11;19.20;99.90
49224;DHT22;35050;51.316;5.994;2022-10-23T14:25:37;19.20;99.90
49224;DHT22;35050;51.316;5.994;2022-10-23T14:28:02;19.10;99.90
49224;DHT22;35050;51.316;5.994;2022-10-23T14:30:28;19.00;99.90
49224;DHT22;35050;51.316;5.994;2022-10-23T14:32:53;19.00;99.90
49224;DHT22;35050;51.316;5.994;2022-10-23T14:35:19;19.00;99.90
49224;DHT22;35050;51.316;5.994;2022-10-23T14:37:45;19.00;99.90
49224;DHT22;35050;51.316;5.994;2022-10-23T14:40:10;18.90;99.90
49224;DHT22;35050;51.316;5.994;2022-10-23T14:42:36;18.80;99.90
49224;DHT22;35050;51.316;5.994;2022-10-23T14:45:01;18.80;99.90
49224;DHT22;35050;51.316;5.994;2022-10-23T14:47:27;18.80;99.90
49224;DHT22;35050;51.316;5.994;2022-10-23T14:49:53;18.80;99.90
49224;DHT22;35050;51.316;5.994;2022-10-23T14:52:19;18.80;99.90
49224;DHT22;35050;51.316;5.994;2022-10-23T14:54:44;18.70;99.90
49224;DHT22;35050;51.316;5.994;2022-10-23T14:57:10;18.70;99.90
49224;DHT22;35050;51.316;5.994;2022-10-23T14:59:40;18.60;99.90
49224;DHT22;35050;51.316;5.994;2022-10-23T15:02:05;18.50;99.90
49224;DHT22;35050;51.316;5.994;2022-10-23T15:04:31;18.50;99.90
49224;DHT22;35050;51.316;5.994;2022-10-23T15:06:56;18.50;99.90
49224;DHT22;35050;51.316;5.994;2022-10-23T15:09:22;18.50;99.90
49224;DHT22;35050;51.316;5.994;2022-10-23T15:11:47;18.40;99.90
49224;DHT22;35050;51.316;5.994;2022-10-23T15:14:13;18.40;99.90
49224;DHT22;35050;51.316;5.994;2022-10-23T15:16:38;18.40;99.90
49224;DHT22;35050;51.316;5.994;2022-10-23T15:19:07;18.40;99.90
49224;DHT22;35050;51.316;5.994;2022-10-23T15:21:33;18.40;99.90
49224;DHT22;35050;51.316;5.994;2022-10-23T15:23:59;18.30;99.90
49224;DHT22;35050;51.316;5.994;2022-10-23T15:26:24;18.30;99.90
49224;DHT22;35050;51.316;5.994;2022-10-23T15:28:53;18.30;99.90
49224;DHT22;35050;51.316;5.994;2022-10-23T15:33:56;18.30;99.90
49224;DHT22;35050;51.316;5.994;2022-10-23T15:36:22;18.30;99.90
49224;DHT22;35050;51.316;5.994;2022-10-23T15:38:48;18.30;99.90
49224;DHT22;35050;51.316;5.994;2022-10-23T15:41:15;18.30;99.90
49224;DHT22;35050;51.316;5.994;2022-10-23T15:43:40;18.20;99.90
49224;DHT22;35050;51.316;5.994;2022-10-23T15:46:06;18.20;99.90
49224;DHT22;35050;51.316;5.994;2022-10-23T15:48:31;18.20;99.90
49224;DHT22;35050;51.316;5.994;2022-10-23T15:50:57;18.20;99.90
49224;DHT22;35050;51.316;5.994;2022-10-23T15:53:23;18.20;99.90
49224;DHT22;35050;51.316;5.994;2022-10-23T15:55:49;18.20;99.90
49224;DHT22;35050;51.316;5.994;2022-10-23T15:58:14;18.20;99.90
49224;DHT22;35050;51.316;5.994;2022-10-23T16:00:40;18.20;99.90
49224;DHT22;35050;51.316;5.994;2022-10-23T16:03:05;18.20;99.90
49224;DHT22;35050;51.316;5.994;2022-10-23T16:05:31;18.20;99.90
49224;DHT22;35050;51.316;5.994;2022-10-23T16:07:56;18.30;99.90
49224;DHT22;35050;51.316;5.994;2022-10-23T16:10:22;18.30;99.90
49224;DHT22;35050;51.316;5.994;2022-10-23T16:12:49;18.20;99.90
49224;DHT22;35050;51.316;5.994;2022-10-23T16:15:14;18.10;99.90
49224;DHT22;35050;51.316;5.994;2022-10-23T16:17:40;17.90;99.90
49224;DHT22;35050;51.316;5.994;2022-10-23T16:20:06;17.90;99.90
49224;DHT22;35050;51.316;5.994;2022-10-23T16:22:31;17.90;99.90
49224;DHT22;35050;51.316;5.994;2022-10-23T16:24:57;17.80;99.90
49224;DHT22;35050;51.316;5.994;2022-10-23T16:27:22;17.80;99.90
49224;DHT22;35050;51.316;5.994;2022-10-23T16:29:48;17.90;99.90
49224;DHT22;35050;51.316;5.994;2022-10-23T16:32:14;17.80;99.90
49224;DHT22;35050;51.316;5.994;2022-10-23T16:34:39;17.80;99.90
49224;DHT22;35050;51.316;5.994;2022-10-23T16:37:04;17.80;99.90
49224;DHT22;35050;51.316;5.994;2022-10-23T16:39:30;17.80;99.90
49224;DHT22;35050;51.316;5.994;2022-10-23T16:41:56;17.70;99.90
49224;DHT22;35050;51.316;5.994;2022-10-23T16:44:21;17.80;99.90
49224;DHT22;35050;51.316;5.994;2022-10-23T16:46:47;17.80;99.90
49224;DHT22;35050;51.316;5.994;2022-10-23T16:49:13;17.80;99.90
49224;DHT22;35050;51.316;5.994;2022-10-23T16:51:38;17.80;99.90
49224;DHT22;35050;51.316;5.994;2022-10-23T16:54:04;17.80;99.90
49224;DHT22;35050;51.316;5.994;2022-10-23T16:56:30;17.70;99.90
49224;DHT22;35050;51.316;5.994;2022-10-23T16:58:56;17.80;99.90
49224;DHT22;35050;51.316;5.994;2022-10-23T17:01:23;17.70;99.90
49224;DHT22;35050;51.316;5.994;2022-10-23T17:03:50;17.70;99.90
49224;DHT22;35050;51.316;5.994;2022-10-23T17:06:17;17.80;99.90
49224;DHT22;35050;51.316;5.994;2022-10-23T17:08:43;17.80;99.90
49224;DHT22;35050;51.316;5.994;2022-10-23T17:13:34;17.70;99.90
49224;DHT22;35050;51.316;5.994;2022-10-23T17:16:07;17.70;99.90
49224;DHT22;35050;51.316;5.994;2022-10-23T17:18:33;17.70;99.90
49224;DHT22;35050;51.316;5.994;2022-10-23T17:20:59;17.70;99.90
49224;DHT22;35050;51.316;5.994;2022-10-23T17:23:25;17.70;99.90
49224;DHT22;35050;51.316;5.994;2022-10-23T17:25:51;17.70;99.90
49224;DHT22;35050;51.316;5.994;2022-10-23T17:28:16;17.80;99.90
49224;DHT22;35050;51.316;5.994;2022-10-23T17:30:42;17.80;99.90
49224;DHT22;35050;51.316;5.994;2022-10-23T17:33:07;17.70;99.90
49224;DHT22;35050;51.316;5.994;2022-10-23T17:35:33;17.70;99.90
49224;DHT22;35050;51.316;5.994;2022-10-23T17:37:58;17.70;99.90
49224;DHT22;35050;51.316;5.994;2022-10-23T17:40:24;17.70;99.90
49224;DHT22;35050;51.316;5.994;2022-10-23T17:42:52;17.70;99.90
49224;DHT22;35050;51.316;5.994;2022-10-23T17:45:17;17.70;99.90
49224;DHT22;35050;51.316;5.994;2022-10-23T17:47:43;17.70;99.90
49224;DHT22;35050;51.316;5.994;2022-10-23T17:50:08;17.60;99.90
49224;DHT22;35050;51.316;5.994;2022-10-23T17:52:36;17.60;99.90